createdAt,value
2022-08-12T00:13:04.946Z,2.73
2022-08-12T00:15:44.183Z,2.94
2022-08-12T00:17:05.976Z,2.77
2022-08-12T00:18:28.599Z,3.18
2022-08-12T00:19:50.752Z,2.87
2022-08-12T00:21:14.023Z,2.73
2022-08-12T00:22:35.939Z,2.97
2022-08-12T00:23:58.221Z,3.07
2022-08-12T00:25:20.290Z,2.66
2022-08-12T00:26:43.932Z,2.97
2022-08-12T00:28:06.051Z,2.84
2022-08-12T00:29:28.519Z,2.95
2022-08-12T00:30:50.444Z,2.83
2022-08-12T00:32:35.513Z,2.94
2022-08-12T00:33:52.376Z,2.80
2022-08-12T00:35:09.192Z,2.76
2022-08-12T00:36:35.271Z,2.74
2022-08-12T00:37:54.283Z,2.69
2022-08-12T00:39:17.151Z,2.71
2022-08-12T00:40:41.006Z,2.79
2022-08-12T00:42:02.189Z,2.81
2022-08-12T00:43:23.624Z,2.67
2022-08-12T00:44:45.236Z,2.68
2022-08-12T00:46:12.065Z,2.82
2022-08-12T00:48:54.929Z,2.99
2022-08-12T00:50:17.348Z,3.00
2022-08-12T00:51:39.164Z,2.24
2022-08-12T00:53:00.637Z,2.86
2022-08-12T00:54:21.943Z,2.69
2022-08-12T00:55:43.144Z,2.89
2022-08-12T00:57:08.307Z,2.90
2022-08-12T00:58:30.131Z,2.69
2022-08-12T00:59:57.189Z,2.90
2022-08-12T01:01:20.456Z,3.06
2022-08-12T01:02:44.573Z,3.17
2022-08-12T01:04:06.262Z,2.97
2022-08-12T01:05:27.543Z,2.87
2022-08-12T01:06:51.130Z,2.88
2022-08-12T01:08:12.107Z,2.81
2022-08-12T01:09:34.174Z,2.64
2022-08-12T01:10:55.876Z,2.80
2022-08-12T01:12:17.061Z,2.89
2022-08-12T01:15:00.160Z,3.17
2022-08-12T01:16:21.457Z,2.94
2022-08-12T01:17:44.764Z,2.73
2022-08-12T01:19:06.582Z,2.67
2022-08-12T01:22:20.103Z,3.04
2022-08-12T01:24:29.550Z,3.01
2022-08-12T01:25:31.590Z,3.12
2022-08-12T01:26:53.419Z,2.93
2022-08-12T01:28:14.659Z,3.08
2022-08-12T01:29:39.358Z,3.32
2022-08-12T01:31:05.833Z,3.24
2022-08-12T01:32:27.736Z,2.91
2022-08-12T01:33:55.138Z,2.79
2022-08-12T01:35:16.885Z,3.09
2022-08-12T01:36:43.218Z,3.23
2022-08-12T01:38:06.355Z,2.91
2022-08-12T01:40:46.975Z,3.03
2022-08-12T01:42:08.922Z,3.18
2022-08-12T01:43:30.186Z,2.88
2022-08-12T01:44:51.924Z,2.81
2022-08-12T01:46:35.223Z,3.08
2022-08-12T03:16:00.622Z,2.99
2022-08-12T03:17:25.568Z,3.12
2022-08-12T03:18:48.175Z,3.99
2022-08-12T03:21:54.660Z,3.33
2022-08-12T03:22:50.721Z,3.14
2022-08-12T03:24:12.281Z,3.22
2022-08-12T03:25:34.110Z,2.86
2022-08-12T03:27:00.404Z,2.97
2022-08-12T03:28:23.529Z,3.22
2022-08-12T03:29:50.051Z,3.35
2022-08-12T03:31:09.549Z,2.86
2022-08-12T03:32:36.085Z,3.09
2022-08-12T03:35:09.568Z,2.42
2022-08-12T03:36:34.225Z,3.53
2022-08-12T03:39:16.579Z,2.77
2022-08-12T03:42:18.509Z,3.38
2022-08-12T03:43:43.973Z,3.89
2022-08-12T03:45:28.026Z,3.43
2022-08-12T03:48:13.329Z,3.41
2022-08-12T03:49:35.684Z,3.12
2022-08-12T03:50:56.960Z,2.38
2022-08-12T03:52:18.171Z,3.36
2022-08-12T03:53:39.646Z,3.98
2022-08-12T03:55:01.048Z,4.22
2022-08-12T03:56:22.382Z,4.29
2022-08-12T03:57:43.550Z,4.25
2022-08-12T03:59:06.771Z,5.92
2022-08-12T04:00:28.946Z,6.13
2022-08-12T04:01:50.502Z,4.36
2022-08-12T04:03:13.002Z,4.62
2022-08-12T04:04:34.980Z,4.72
2022-08-12T04:05:56.942Z,4.41
2022-08-12T04:07:18.678Z,4.26
2022-08-12T04:08:40.164Z,5.62
2022-08-12T04:10:01.432Z,4.99
2022-08-12T04:11:23.899Z,4.82
2022-08-12T04:12:56.547Z,5.32
2022-08-12T04:14:20.024Z,4.91
2022-08-12T04:15:42.622Z,6.19
2022-08-12T04:18:25.414Z,5.03
2022-08-12T04:19:46.974Z,4.10
2022-08-12T04:21:09.343Z,4.03
2022-08-12T04:22:31.101Z,3.88
2022-08-12T04:23:53.102Z,3.87
2022-08-12T04:25:15.330Z,4.08
2022-08-12T04:26:38.761Z,4.65
2022-08-12T04:28:13.080Z,5.25
2022-08-12T04:30:16.964Z,5.01
2022-08-12T04:30:48.462Z,4.62
2022-08-12T04:32:09.711Z,3.84
2022-08-12T04:33:32.479Z,4.30
2022-08-12T04:36:16.368Z,3.91
2022-08-12T04:37:58.608Z,4.18
2022-08-12T04:39:02.252Z,5.26
2022-08-12T04:40:28.392Z,4.53
2022-08-12T04:41:57.513Z,5.51
2022-08-12T04:44:00.597Z,4.87
2022-08-12T04:44:40.745Z,4.71
2022-08-12T04:46:02.828Z,6.37
2022-08-12T04:47:26.843Z,8.04
2022-08-12T04:48:48.533Z,8.82
2022-08-12T04:51:35.730Z,5.74
2022-08-12T04:52:59.543Z,5.67
2022-08-12T04:54:23.220Z,5.89
2022-08-12T04:55:45.696Z,5.44
2022-08-12T04:57:07.013Z,4.98
2022-08-12T04:58:30.030Z,4.39
2022-08-12T04:59:53.526Z,3.86
2022-08-12T05:01:17.747Z,4.82
2022-08-12T05:02:40.345Z,4.48
2022-08-12T05:04:02.077Z,4.40
2022-08-12T05:05:23.896Z,4.17
2022-08-12T05:06:45.616Z,4.11
2022-08-12T05:08:13.524Z,4.07
2022-08-12T05:10:02.024Z,4.60
2022-08-12T05:11:00.834Z,4.10
2022-08-12T05:12:22.361Z,4.17
2022-08-12T05:13:44.005Z,3.74
2022-08-12T05:15:19.164Z,3.90
2022-08-12T05:16:34.349Z,3.63
2022-08-12T05:17:55.954Z,3.59
2022-08-12T05:19:22.564Z,4.06
2022-08-12T05:20:41.118Z,3.34
2022-08-12T05:22:02.407Z,3.26
2022-08-12T05:23:24.282Z,3.62
2022-08-12T05:24:46.039Z,3.49
2022-08-12T05:26:09.268Z,4.05
2022-08-12T05:28:44.774Z,5.11
2022-08-12T05:30:12.958Z,6.22
2022-08-12T05:31:40.535Z,5.31
2022-08-12T05:33:00.594Z,4.07
2022-08-12T05:34:26.623Z,4.14
2022-08-12T05:35:46.027Z,3.58
2022-08-12T05:37:07.611Z,3.41
2022-08-12T05:38:28.973Z,3.64
2022-08-12T05:39:50.628Z,3.24
2022-08-12T05:41:12.651Z,3.25
2022-08-12T05:42:34.797Z,2.92
2022-08-12T05:45:19.133Z,2.92
2022-08-12T05:46:41.062Z,2.83
2022-08-12T05:48:02.446Z,2.97
2022-08-12T05:49:23.756Z,2.42
2022-08-12T05:50:45.189Z,2.56
2022-08-12T05:52:09.647Z,2.78
2022-08-12T05:53:31.405Z,2.84
2022-08-12T05:54:57.734Z,4.13
2022-08-12T05:56:26.056Z,3.57
2022-08-12T05:57:55.755Z,4.25
2022-08-12T06:00:49.697Z,4.19
2022-08-12T06:02:17.757Z,4.36
2022-08-12T06:03:39.967Z,4.59
2022-08-12T06:05:08.691Z,4.62
2022-08-12T06:06:31.651Z,3.94
2022-08-12T06:08:01.406Z,3.18
2022-08-12T06:09:20.464Z,3.55
2022-08-12T06:12:14.262Z,3.09
2022-08-12T06:13:53.846Z,2.98
2022-08-12T06:15:25.118Z,3.44
2022-08-12T06:16:53.927Z,3.51
2022-08-12T06:20:25.756Z,4.29
2022-08-12T06:35:26.020Z,2.43
2022-08-12T06:38:23.683Z,3.50
2022-08-12T06:40:08.285Z,2.90
2022-08-12T06:54:30.730Z,3.49
2022-08-12T08:03:01.905Z,5.34
2022-08-12T08:10:44.211Z,5.59
2022-08-12T08:13:54.238Z,5.18
2022-08-12T08:15:21.052Z,4.50
2022-08-12T08:18:34.861Z,3.75
2022-08-12T08:20:02.535Z,3.92
2022-08-12T16:28:55.348Z,5.09
2022-08-12T16:32:14.651Z,3.74
2022-08-12T16:55:56.583Z,3.88
2022-08-12T16:57:35.786Z,3.74
2022-08-12T17:00:27.664Z,4.88
2022-08-12T17:13:33.931Z,6.09
2022-08-12T17:18:44.234Z,6.22
2022-08-12T17:20:30.561Z,5.83
2022-08-12T17:21:19.764Z,5.92
2022-08-12T17:22:43.586Z,6.62
2022-08-12T17:27:55.028Z,4.80
2022-08-12T17:30:03.033Z,4.59
2022-08-12T17:32:54.124Z,3.98
2022-08-12T17:34:18.762Z,4.41
2022-08-12T17:35:43.335Z,3.84
2022-08-12T17:37:07.573Z,4.14
2022-08-12T17:38:33.458Z,4.86
2022-08-12T17:42:31.117Z,7.02
2022-08-12T17:43:56.047Z,7.84
2022-08-12T17:44:58.444Z,9.69
2022-08-12T17:46:33.276Z,10.39
2022-08-12T17:48:04.991Z,12.12
2022-08-12T17:50:01.921Z,9.97
2022-08-12T17:54:30.733Z,7.89
2022-08-12T17:56:11.149Z,6.91
2022-08-12T17:59:47.361Z,6.28
2022-08-12T18:00:46.915Z,5.99
2022-08-12T18:09:36.364Z,8.76
2022-08-12T18:11:38.364Z,8.75
2022-08-12T18:12:48.881Z,8.19
2022-08-12T18:16:06.085Z,6.79
2022-08-12T18:17:13.209Z,6.44
2022-08-12T18:18:39.909Z,6.34
2022-08-12T18:20:08.066Z,5.98
2022-08-12T18:26:22.362Z,5.82
2022-08-12T18:27:50.321Z,5.62
2022-08-12T18:29:16.666Z,4.63
2022-08-12T18:30:44.107Z,5.54
2022-08-12T18:32:23.497Z,5.04
2022-08-12T18:33:44.055Z,4.86
2022-08-12T18:36:47.191Z,4.88
2022-08-12T18:38:04.547Z,6.46
2022-08-12T18:39:26.096Z,5.49
2022-08-12T18:44:12.203Z,6.16
2022-08-12T18:45:46.839Z,6.36
2022-08-12T18:48:46.397Z,6.09
2022-08-12T18:54:08.174Z,5.86
2022-08-12T18:57:59.702Z,5.86
2022-08-12T19:00:43.340Z,6.08
2022-08-12T19:02:19.599Z,6.14
2022-08-12T19:03:39.669Z,5.29
2022-08-12T19:04:57.684Z,5.16
2022-08-12T19:06:21.856Z,4.65
2022-08-12T19:08:01.129Z,4.76
2022-08-12T19:09:17.884Z,4.51
2022-08-12T19:12:30.371Z,4.54
2022-08-12T19:15:42.361Z,5.04
2022-08-12T19:17:06.542Z,4.97
2022-08-12T19:18:38.468Z,4.77
2022-08-12T19:19:57.305Z,5.04
2022-08-12T19:21:20.558Z,5.27
2022-08-12T19:23:58.505Z,5.23
2022-08-12T19:25:59.845Z,5.38
2022-08-12T19:27:10.125Z,5.46
2022-08-12T19:28:36.583Z,5.66
2022-08-12T19:30:09.387Z,5.91
2022-08-12T19:31:45.088Z,5.48
2022-08-12T19:33:05.251Z,5.54
2022-08-12T19:36:25.438Z,4.99
2022-08-12T19:38:04.173Z,4.91
2022-08-12T19:39:22.885Z,5.01
2022-08-12T19:41:05.504Z,5.34
2022-08-12T19:42:36.172Z,4.74
2022-08-12T19:44:00.533Z,4.81
2022-08-12T19:45:22.767Z,4.89
2022-08-12T19:46:52.849Z,5.14
2022-08-12T19:48:16.819Z,4.64
2022-08-12T19:49:36.297Z,4.83
2022-08-12T19:50:58.042Z,4.58
2022-08-12T19:52:30.500Z,4.69
2022-08-12T19:53:58.669Z,4.73
2022-08-12T19:55:21.453Z,4.92
2022-08-12T19:56:43.652Z,4.59
2022-08-12T19:58:18.106Z,4.62
2022-08-12T19:59:43.297Z,5.69
2022-08-12T20:01:02.762Z,5.62
2022-08-12T20:02:32.800Z,4.43
2022-08-12T20:03:59.106Z,4.69
2022-08-12T20:06:45.198Z,4.70
2022-08-12T20:08:08.606Z,5.06
2022-08-12T20:09:38.911Z,5.33
2022-08-12T20:10:56.411Z,4.80
2022-08-12T20:14:29.520Z,4.83
2022-08-12T20:16:03.776Z,4.67
2022-08-12T20:17:36.037Z,5.13
2022-08-12T20:19:23.446Z,4.73
2022-08-12T20:26:07.428Z,4.96
2022-08-12T20:28:04.349Z,5.06
2022-08-12T20:30:53.164Z,4.89
2022-08-12T20:32:29.612Z,4.98
2022-08-12T20:34:00.872Z,5.00
2022-08-12T20:36:06.787Z,4.78
2022-08-12T20:36:57.244Z,6.28
2022-08-12T20:40:17.277Z,5.24
2022-08-12T20:43:59.767Z,5.22
2022-08-12T20:45:26.322Z,4.68
2022-08-12T20:46:54.243Z,4.87
2022-08-12T20:48:16.630Z,4.98
2022-08-12T20:51:05.900Z,4.54
2022-08-12T20:52:38.636Z,4.97
2022-08-12T20:53:59.633Z,4.89
2022-08-12T20:55:21.308Z,5.04
2022-08-12T20:56:45.280Z,4.65
2022-08-12T20:58:07.861Z,4.93
2022-08-12T20:59:31.653Z,5.02
2022-08-12T21:00:54.607Z,4.94
2022-08-12T21:02:18.541Z,5.28
2022-08-12T21:03:52.745Z,5.09
2022-08-12T21:06:09.401Z,4.83
2022-08-12T21:07:04.711Z,5.30
2022-08-12T21:08:27.332Z,5.48
2022-08-12T21:09:51.552Z,4.91
2022-08-12T21:11:15.158Z,5.18
2022-08-12T21:12:38.072Z,5.08
2022-08-12T21:14:00.189Z,5.18
2022-08-12T21:27:07.357Z,8.01
2022-08-12T21:29:54.921Z,6.65
2022-08-12T21:32:39.709Z,5.92
2022-08-12T21:32:47.390Z,5.91
2022-08-12T21:34:08.701Z,5.84
2022-08-12T21:35:26.008Z,6.02
2022-08-12T21:36:49.551Z,5.87
2022-08-12T21:38:11.833Z,5.44
2022-08-12T21:39:35.611Z,5.54
2022-08-12T21:40:59.872Z,5.15
2022-08-12T21:42:27.711Z,5.11
2022-08-12T21:45:48.320Z,5.44
2022-08-12T21:46:34.938Z,5.34
2022-08-12T21:47:57.868Z,5.51
2022-08-12T21:49:54.904Z,5.57
2022-08-12T21:50:43.942Z,5.73
2022-08-12T21:52:08.531Z,5.07
2022-08-12T21:53:31.612Z,5.18
2022-08-12T21:56:08.126Z,5.29
2022-08-12T21:57:29.973Z,5.06
2022-08-12T21:58:53.198Z,5.20
2022-08-12T22:00:16.885Z,5.49
2022-08-12T22:01:48.663Z,5.82
2022-08-12T22:03:03.028Z,6.14
2022-08-12T22:05:45.445Z,5.77
2022-08-12T22:07:07.306Z,5.94
2022-08-12T22:08:34.663Z,6.01
2022-08-12T22:09:57.373Z,5.76
2022-08-12T22:11:21.506Z,5.57
2022-08-12T22:12:42.854Z,5.72
2022-08-12T22:14:08.363Z,5.96
2022-08-12T22:15:27.114Z,5.69
2022-08-12T22:16:52.670Z,5.69
2022-08-12T22:19:35.442Z,5.46
2022-08-12T22:20:57.022Z,5.48
2022-08-12T22:22:19.380Z,5.96
2022-08-12T22:23:52.081Z,6.99
2022-08-12T22:25:08.288Z,7.17
2022-08-12T22:26:37.905Z,8.78
2022-08-12T22:27:56.034Z,8.36
2022-08-12T22:29:18.611Z,10.58
2022-08-12T22:30:40.488Z,10.78
2022-08-12T22:32:02.531Z,9.44
2022-08-12T22:33:24.874Z,9.14
2022-08-12T22:34:46.138Z,9.72
2022-08-12T22:36:10.068Z,9.11
2022-08-12T22:37:31.733Z,7.71
2022-08-12T22:38:56.347Z,7.18
2022-08-12T22:40:19.912Z,7.24
2022-08-12T22:41:42.541Z,6.82
2022-08-12T22:43:05.546Z,5.76
2022-08-12T22:44:27.456Z,6.06
2022-08-12T22:45:56.146Z,6.48
2022-08-12T22:47:12.001Z,5.87
2022-08-12T22:48:33.728Z,5.89
2022-08-12T22:49:59.639Z,5.23
2022-08-12T22:51:20.889Z,5.28
2022-08-12T22:52:42.265Z,5.90
2022-08-12T22:54:03.963Z,5.72
2022-08-12T22:55:59.020Z,5.57
2022-08-12T22:56:49.046Z,5.64
2022-08-12T22:58:12.535Z,5.79
2022-08-12T22:59:55.276Z,6.13
2022-08-12T23:00:59.221Z,5.94
2022-08-12T23:02:29.953Z,5.93
2022-08-12T23:03:53.814Z,6.02
2022-08-12T23:05:14.770Z,6.12
2022-08-12T23:06:36.267Z,6.02
2022-08-12T23:07:59.689Z,5.91
2022-08-12T23:10:35.921Z,6.15
2022-08-12T23:11:59.528Z,5.80
2022-08-12T23:13:20.834Z,5.55
2022-08-12T23:14:44.115Z,6.16
2022-08-12T23:16:07.167Z,5.93
2022-08-12T23:17:40.249Z,6.24
2022-08-12T23:18:52.587Z,5.66
2022-08-12T23:20:15.756Z,5.81
2022-08-12T23:22:03.727Z,5.57
2022-08-12T23:23:03.113Z,5.47
2022-08-12T23:24:26.025Z,5.88
2022-08-12T23:25:54.561Z,5.78
2022-08-12T23:27:12.885Z,6.48
2022-08-12T23:28:34.983Z,6.38
2022-08-12T23:29:59.411Z,6.78
2022-08-12T23:31:24.182Z,7.27
2022-08-12T23:32:43.465Z,6.38
2022-08-12T23:34:08.358Z,6.52
2022-08-12T23:35:53.418Z,6.68
2022-08-12T23:36:53.942Z,6.84
2022-08-12T23:38:30.688Z,6.19
2022-08-12T23:40:06.772Z,6.01
2022-08-12T23:41:02.604Z,6.65
2022-08-12T23:42:30.877Z,7.07
2022-08-12T23:43:50.260Z,6.86
2022-08-12T23:45:20.219Z,7.43
2022-08-12T23:46:36.021Z,7.11
2022-08-12T23:48:00.363Z,6.64
2022-08-12T23:50:45.042Z,6.88
2022-08-12T23:52:09.178Z,6.78
2022-08-12T23:53:32.367Z,6.87
2022-08-12T23:54:58.234Z,6.56
2022-08-12T23:56:19.459Z,6.63
2022-08-12T23:58:17.821Z,6.30
2022-08-12T23:59:59.766Z,6.86
